Time;durP1;ratioP1;P1;durP2;ratioP2;P2;SDS_P1;SDS_P2;PMS_P1;PMS_P2;Temp;Humidity;BMP_temperature;BMP_pressure;BME280_temperature;BME280_humidity;BME280_pressure;Samples;Min_cycle;Max_cycle;Signal;HPM_P1;HPM_P2
2023/06/19 00:01:28;;;;;;;9.90;8.60;;;19.30;36.10;;;;;;4913603;29;20265;-88
2023/06/19 00:03:55;;;;;;;11.45;9.00;;;19.30;36.40;;;;;;4910322;29;20922;-88
2023/06/19 00:06:22;;;;;;;10.18;9.02;;;19.30;36.30;;;;;;4909604;29;20257;-86
2023/06/19 00:08:49;;;;;;;9.85;8.85;;;19.30;36.40;;;;;;4912802;29;20675;-89
2023/06/19 00:11:16;;;;;;;9.68;8.65;;;19.20;35.30;;;;;;4906675;29;20204;-89
2023/06/19 00:13:43;;;;;;;10.43;8.98;;;19.20;35.00;;;;;;4908953;29;20206;-88
2023/06/19 00:16:10;;;;;;;9.82;8.82;;;19.10;36.90;;;;;;4909630;29;20213;-89
2023/06/19 00:18:40;;;;;;;11.00;9.38;;;19.00;36.50;;;;;;4917268;29;20230;-89
2023/06/19 00:21:07;;;;;;;10.32;9.07;;;19.10;35.50;;;;;;4910377;29;20230;-87
2023/06/19 00:23:35;;;;;;;15.02;9.77;;;19.10;35.30;;;;;;4895967;29;20222;-88
2023/06/19 00:26:02;;;;;;;11.52;9.10;;;19.10;35.20;;;;;;4895298;29;20659;-88
2023/06/19 00:28:29;;;;;;;9.80;8.80;;;19.20;35.60;;;;;;4910899;29;20204;-88
2023/06/19 00:30:56;;;;;;;10.18;9.15;;;19.20;35.70;;;;;;4892727;29;20209;-89
2023/06/19 00:33:23;;;;;;;10.23;9.20;;;19.20;35.90;;;;;;4892349;29;20195;-86
2023/06/19 00:35:52;;;;;;;11.00;9.45;;;19.20;36.30;;;;;;4909421;29;20647;-87
2023/06/19 00:38:18;;;;;;;12.35;9.52;;;19.10;36.90;;;;;;4911846;29;20214;-89
2023/06/19 00:40:45;;;;;;;10.15;8.93;;;19.10;37.40;;;;;;4915369;29;20546;-87
2023/06/19 00:43:13;;;;;;;12.63;9.48;;;19.10;38.40;;;;;;4896078;29;20206;-85
2023/06/19 00:45:40;;;;;;;10.70;9.50;;;19.00;38.20;;;;;;4894828;29;20266;-90
2023/06/19 00:48:07;;;;;;;11.48;9.70;;;19.10;37.40;;;;;;4909398;29;20205;-89
2023/06/19 00:50:37;;;;;;;10.50;9.40;;;19.10;37.50;;;;;;4882377;29;20214;-88
2023/06/19 00:53:07;;;;;;;12.60;9.32;;;19.10;37.90;;;;;;4913392;29;20210;-89
2023/06/19 00:55:34;;;;;;;11.48;9.00;;;19.10;37.60;;;;;;4895799;29;21438;-89
2023/06/19 00:58:02;;;;;;;10.25;9.18;;;19.20;36.90;;;;;;4917839;29;20206;-89
2023/06/19 01:00:29;;;;;;;9.93;8.93;;;19.20;35.80;;;;;;4916434;29;20198;-87
2023/06/19 01:02:56;;;;;;;10.77;9.43;;;19.20;36.30;;;;;;4912481;29;20222;-89
2023/06/19 01:05:22;;;;;;;9.88;8.77;;;19.20;36.20;;;;;;4893543;29;20572;-88
2023/06/19 01:07:58;;;;;;;10.75;9.30;;;19.20;36.60;;;;;;4910560;29;20203;-87
2023/06/19 01:10:31;;;;;;;10.25;9.23;;;19.10;38.30;;;;;;4912287;29;20214;-88
2023/06/19 01:13:01;;;;;;;9.57;8.68;;;19.10;37.40;;;;;;4893204;29;20203;-89
2023/06/19 01:15:28;;;;;;;10.38;9.25;;;19.20;37.20;;;;;;4892849;29;20199;-88
2023/06/19 01:17:57;;;;;;;9.88;8.90;;;19.20;37.40;;;;;;4890023;29;20238;-90
2023/06/19 01:20:25;;;;;;;10.45;9.32;;;19.10;37.30;;;;;;4910303;29;20610;-89
2023/06/19 01:22:56;;;;;;;11.05;8.75;;;19.20;37.50;;;;;;4913441;29;20618;-88
2023/06/19 01:25:23;;;;;;;11.32;9.05;;;19.20;37.40;;;;;;4910077;29;20210;-88
2023/06/19 01:27:51;;;;;;;10.48;8.98;;;19.20;37.00;;;;;;4913678;29;20208;-89
2023/06/19 01:30:18;;;;;;;10.00;8.82;;;19.20;35.50;;;;;;4912345;29;20211;-88
2023/06/19 01:32:51;;;;;;;9.52;8.63;;;19.20;36.10;;;;;;4916586;29;20207;-89
2023/06/19 01:35:23;;;;;;;11.05;9.13;;;19.20;35.90;;;;;;4909872;29;20203;-89
2023/06/19 01:37:51;;;;;;;9.85;8.98;;;19.20;35.50;;;;;;4914818;29;20257;-87
2023/06/19 01:40:24;;;;;;;10.90;8.80;;;19.20;36.10;;;;;;4915561;29;20203;-88
2023/06/19 01:42:52;;;;;;;11.27;9.10;;;19.30;36.10;;;;;;4910867;29;20597;-88
2023/06/19 01:45:19;;;;;;;13.20;9.38;;;19.20;35.80;;;;;;4915422;29;20226;-88
2023/06/19 01:47:46;;;;;;;10.32;9.18;;;19.20;35.80;;;;;;4916199;29;20304;-90
2023/06/19 01:50:13;;;;;;;10.85;9.82;;;19.20;35.90;;;;;;4912757;29;20664;-88
2023/06/19 01:52:40;;;;;;;9.10;8.30;;;19.20;36.10;;;;;;4915849;29;20262;-87
2023/06/19 01:55:09;;;;;;;10.75;8.88;;;19.20;36.40;;;;;;4908237;29;20214;-89
2023/06/19 01:57:37;;;;;;;11.32;8.50;;;19.20;36.10;;;;;;4910053;29;20858;-89
2023/06/19 02:00:07;;;;;;;10.48;8.77;;;19.20;36.40;;;;;;4912798;29;20203;-88
2023/06/19 02:02:34;;;;;;;9.18;8.25;;;19.20;36.60;;;;;;4913770;29;20223;-90
2023/06/19 02:05:01;;;;;;;9.95;8.95;;;19.20;37.20;;;;;;4910126;29;20275;-89
2023/06/19 02:07:28;;;;;;;11.18;9.15;;;19.20;37.30;;;;;;4913568;29;20743;-89
2023/06/19 02:09:54;;;;;;;9.55;8.45;;;19.20;37.70;;;;;;4916104;29;20218;-90
2023/06/19 02:12:21;;;;;;;9.25;8.35;;;19.20;38.60;;;;;;4909442;29;20203;-88
2023/06/19 02:14:50;;;;;;;10.00;9.10;;;19.20;38.60;;;;;;4908821;29;20210;-90
2023/06/19 02:17:17;;;;;;;10.05;9.05;;;19.30;39.00;;;;;;4913967;29;20237;-90
2023/06/19 02:19:44;;;;;;;9.63;8.73;;;19.30;38.00;;;;;;4914537;29;20345;-90
2023/06/19 02:22:11;;;;;;;10.70;9.60;;;19.40;38.50;;;;;;4916302;29;20912;-87
2023/06/19 02:24:39;;;;;;;10.18;9.18;;;19.40;38.40;;;;;;4911521;29;20213;-89
2023/06/19 02:27:07;;;;;;;9.68;8.82;;;19.30;38.40;;;;;;4909140;29;20214;-90
2023/06/19 02:29:34;;;;;;;10.05;9.05;;;19.30;38.50;;;;;;4912383;29;20210;-86
2023/06/19 02:32:02;;;;;;;9.88;8.70;;;19.30;40.00;;;;;;4913796;29;20211;-89
2023/06/19 02:34:29;;;;;;;9.95;8.90;;;19.30;38.60;;;;;;4895346;29;20199;-87
2023/06/19 02:36:56;;;;;;;9.50;8.60;;;19.30;38.10;;;;;;4916562;29;20206;-88
2023/06/19 02:39:23;;;;;;;9.75;8.75;;;19.20;38.80;;;;;;4914001;29;20203;-89
2023/06/19 02:41:50;;;;;;;10.70;8.77;;;19.30;38.70;;;;;;4909100;29;20686;-89
2023/06/19 02:44:17;;;;;;;10.20;9.20;;;19.30;38.50;;;;;;4915659;29;20210;-88
2023/06/19 02:46:44;;;;;;;9.63;8.68;;;19.20;38.70;;;;;;4907425;29;20701;-88
2023/06/19 02:49:13;;;;;;;9.43;8.50;;;19.10;38.90;;;;;;4914901;29;20207;-88
2023/06/19 02:51:40;;;;;;;11.07;9.25;;;19.10;39.30;;;;;;4914273;29;20471;-87
2023/06/19 02:54:06;;;;;;;9.60;8.68;;;19.00;40.10;;;;;;4892040;29;20602;-89
2023/06/19 02:56:34;;;;;;;9.63;8.73;;;19.00;41.70;;;;;;4911803;29;20301;-89
2023/06/19 02:59:00;;;;;;;9.88;8.88;;;18.90;45.10;;;;;;4912299;29;20286;-90
2023/06/19 03:01:28;;;;;;;10.52;9.38;;;18.80;46.90;;;;;;4895059;29;20209;-87
2023/06/19 03:03:55;;;;;;;10.93;9.82;;;18.80;50.30;;;;;;4912025;29;20206;-88
2023/06/19 03:06:23;;;;;;;12.18;8.88;;;18.70;51.30;;;;;;4890273;29;20277;-87
2023/06/19 03:08:50;;;;;;;10.10;9.10;;;18.70;53.00;;;;;;4917237;29;20206;-88
2023/06/19 03:11:17;;;;;;;10.65;9.65;;;18.80;52.80;;;;;;4915259;29;20210;-90
2023/06/19 03:13:48;;;;;;;9.60;8.60;;;18.80;51.90;;;;;;4911465;29;20579;-87
2023/06/19 03:16:15;;;;;;;11.98;9.63;;;18.70;52.60;;;;;;4914771;29;20202;-89
2023/06/19 03:18:44;;;;;;;10.55;9.50;;;18.60;54.30;;;;;;4910461;29;20227;-88
2023/06/19 03:21:11;;;;;;;11.45;9.88;;;18.60;54.60;;;;;;4909499;29;20234;-88
2023/06/19 03:23:40;;;;;;;10.52;9.43;;;18.70;56.10;;;;;;4890746;29;20294;-89
2023/06/19 03:26:07;;;;;;;11.30;8.93;;;18.70;54.70;;;;;;4886198;29;20195;-88
2023/06/19 03:28:34;;;;;;;13.70;10.07;;;18.70;54.70;;;;;;4880106;29;20203;-87
2023/06/19 03:31:01;;;;;;;10.93;9.82;;;18.70;54.70;;;;;;4910913;29;20586;-90
2023/06/19 03:33:28;;;;;;;11.85;9.23;;;18.70;56.00;;;;;;4890329;29;20203;-89
2023/06/19 03:35:55;;;;;;;11.00;9.85;;;18.70;54.70;;;;;;4909902;29;20218;-89
2023/06/19 03:38:22;;;;;;;10.77;9.45;;;18.80;56.00;;;;;;4909979;29;20635;-90
2023/06/19 03:40:50;;;;;;;10.75;9.75;;;18.80;54.80;;;;;;4916759;29;20217;-87
2023/06/19 03:43:17;;;;;;;9.80;8.82;;;18.80;54.80;;;;;;4913190;29;20226;-88
2023/06/19 03:45:44;;;;;;;15.55;8.82;;;18.80;54.30;;;;;;4892950;29;20203;-91
2023/06/19 03:48:11;;;;;;;9.93;9.00;;;18.90;54.10;;;;;;4884670;29;20566;-87
2023/06/19 03:50:38;;;;;;;9.82;8.90;;;18.90;54.90;;;;;;4883922;29;20652;-89
2023/06/19 03:53:06;;;;;;;13.32;9.30;;;18.90;54.90;;;;;;4884453;29;20215;-91
2023/06/19 03:55:33;;;;;;;10.20;8.88;;;18.90;53.00;;;;;;4908921;29;20209;-89
2023/06/19 03:58:01;;;;;;;10.70;9.60;;;18.90;52.70;;;;;;4909817;29;20226;-90
2023/06/19 04:00:28;;;;;;;10.93;9.02;;;18.90;55.20;;;;;;4895066;29;20211;-90
2023/06/19 04:02:56;;;;;;;9.85;8.85;;;18.90;52.10;;;;;;4905076;29;20477;-88
2023/06/19 04:05:23;;;;;;;10.05;8.95;;;18.90;51.10;;;;;;4900790;29;20202;-87
2023/06/19 04:07:50;;;;;;;9.63;8.70;;;18.90;49.90;;;;;;4897258;29;20214;-87
2023/06/19 04:10:17;;;;;;;9.70;8.70;;;18.90;51.20;;;;;;4910293;29;20210;-89
2023/06/19 04:12:45;;;;;;;11.50;8.80;;;19.00;52.50;;;;;;4912509;29;20242;-89
2023/06/19 04:15:13;;;;;;;11.18;8.68;;;19.10;52.70;;;;;;4873610;29;20684;-88
2023/06/19 04:17:40;;;;;;;10.32;8.82;;;19.10;51.00;;;;;;4911718;29;20223;-89
2023/06/19 04:20:10;;;;;;;10.07;8.80;;;19.00;49.70;;;;;;4900743;29;20211;-88
2023/06/19 04:22:38;;;;;;;9.80;8.90;;;19.00;48.40;;;;;;4912264;29;20224;-89
2023/06/19 04:25:06;;;;;;;10.10;9.10;;;19.00;48.10;;;;;;4909609;29;20250;-89
2023/06/19 04:27:32;;;;;;;10.60;9.07;;;19.10;49.50;;;;;;4909353;29;20210;-89
2023/06/19 04:29:59;;;;;;;9.63;8.63;;;19.10;49.70;;;;;;4908430;29;20552;-88
2023/06/19 04:32:28;;;;;;;12.05;8.75;;;19.20;49.40;;;;;;4913347;29;20206;-89
2023/06/19 04:34:55;;;;;;;9.88;8.88;;;19.20;49.00;;;;;;4912668;29;20577;-90
2023/06/19 04:37:22;;;;;;;9.90;8.90;;;19.20;48.90;;;;;;4912099;29;20278;-90
2023/06/19 04:39:49;;;;;;;10.23;8.68;;;19.10;48.30;;;;;;4910799;29;20198;-89
2023/06/19 04:42:19;;;;;;;9.73;8.82;;;19.10;48.90;;;;;;4910788;29;20215;-88
2023/06/19 04:44:46;;;;;;;10.07;8.85;;;19.10;49.30;;;;;;4913465;29;20262;-88
2023/06/19 04:47:13;;;;;;;10.13;9.13;;;19.10;49.50;;;;;;4909604;29;20293;-90
2023/06/19 04:49:41;;;;;;;10.70;8.88;;;19.10;49.90;;;;;;4909620;29;20210;-89
2023/06/19 04:52:08;;;;;;;10.60;9.52;;;19.10;50.70;;;;;;4908728;29;20690;-88
2023/06/19 04:54:35;;;;;;;10.27;9.18;;;19.10;50.40;;;;;;4910908;29;20203;-91
2023/06/19 04:57:02;;;;;;;10.27;9.18;;;19.20;50.90;;;;;;4906921;29;20210;-89
2023/06/19 04:59:30;;;;;;;10.05;8.80;;;19.20;50.30;;;;;;4917660;29;20194;-86
2023/06/19 05:01:57;;;;;;;9.20;8.25;;;19.20;50.20;;;;;;4937512;29;20198;-88
2023/06/19 05:04:24;;;;;;;10.27;9.23;;;19.30;50.00;;;;;;4925080;29;21034;-87
2023/06/19 05:06:53;;;;;;;9.77;8.55;;;19.50;52.90;;;;;;4910705;29;20225;-85
2023/06/19 05:09:20;;;;;;;9.52;8.60;;;19.50;52.70;;;;;;4913248;29;20206;-87
2023/06/19 05:11:47;;;;;;;10.80;8.98;;;19.60;50.00;;;;;;4915127;29;20207;-90
2023/06/19 05:14:14;;;;;;;10.75;9.45;;;19.50;51.00;;;;;;4914124;29;20202;-88
2023/06/19 05:19:22;;;;;;;10.63;8.70;;;19.70;50.40;;;;;;4911654;29;20245;-89
2023/06/19 05:21:49;;;;;;;10.95;9.30;;;19.70;49.40;;;;;;4915341;29;20213;-90
2023/06/19 05:24:17;;;;;;;9.15;8.25;;;19.80;48.70;;;;;;4915408;29;20295;-90
2023/06/19 05:26:44;;;;;;;11.20;8.85;;;19.90;48.60;;;;;;4910611;29;20858;-89
2023/06/19 05:29:11;;;;;;;10.60;9.20;;;20.00;48.90;;;;;;4912618;29;20214;-88
2023/06/19 05:31:38;;;;;;;10.27;9.27;;;20.00;49.20;;;;;;4899778;29;20204;-90
2023/06/19 05:34:05;;;;;;;12.13;8.98;;;20.00;50.00;;;;;;4905658;29;20667;-86
2023/06/19 05:36:31;;;;;;;10.18;8.88;;;20.00;49.90;;;;;;4915379;29;20961;-88
2023/06/19 05:38:58;;;;;;;9.38;8.45;;;19.90;48.60;;;;;;4913330;29;20202;-89
2023/06/19 05:41:27;;;;;;;9.52;8.57;;;19.90;48.80;;;;;;4899508;29;20238;-86
2023/06/19 05:43:53;;;;;;;9.43;8.60;;;20.00;50.50;;;;;;4906304;29;20227;-86
2023/06/19 05:46:20;;;;;;;10.98;8.73;;;20.00;48.90;;;;;;4897492;29;20198;-88
2023/06/19 05:48:48;;;;;;;11.93;8.45;;;20.10;50.40;;;;;;4898628;29;20199;-87
2023/06/19 05:51:15;;;;;;;9.70;8.52;;;20.20;48.70;;;;;;4883785;29;20213;-88
2023/06/19 05:53:42;;;;;;;11.40;9.20;;;20.30;49.10;;;;;;4910308;29;20664;-89
2023/06/19 05:56:09;;;;;;;9.93;8.93;;;20.30;49.50;;;;;;4909559;29;20203;-89
2023/06/19 05:58:37;;;;;;;9.35;8.43;;;20.30;49.70;;;;;;4893657;29;20207;-88
2023/06/19 06:01:04;;;;;;;10.23;9.18;;;20.40;48.30;;;;;;4910142;29;20218;-90
2023/06/19 06:03:31;;;;;;;11.55;9.18;;;20.40;47.10;;;;;;4895882;29;20308;-89
2023/06/19 06:06:02;;;;;;;10.90;8.43;;;20.50;48.20;;;;;;4912039;29;20320;-89
2023/06/19 06:08:29;;;;;;;12.93;8.68;;;20.60;48.50;;;;;;4909245;29;20207;-89
2023/06/19 06:10:56;;;;;;;17.55;9.15;;;20.60;47.60;;;;;;4911280;29;20288;-90
2023/06/19 06:13:23;;;;;;;11.13;8.90;;;20.50;48.40;;;;;;4876157;29;20225;-89
2023/06/19 06:15:51;;;;;;;9.93;8.80;;;20.50;48.90;;;;;;4911416;29;20203;-89
2023/06/19 06:18:18;;;;;;;11.80;8.90;;;20.50;49.30;;;;;;4911519;29;20233;-88
2023/06/19 06:20:45;;;;;;;12.43;8.82;;;20.70;50.90;;;;;;4912165;29;20312;-89
2023/06/19 06:23:12;;;;;;;14.82;9.93;;;20.80;49.60;;;;;;4910734;29;20234;-89
2023/06/19 06:25:39;;;;;;;12.57;8.23;;;20.90;48.60;;;;;;4898253;29;20232;-89
2023/06/19 06:28:06;;;;;;;10.82;8.32;;;21.00;48.60;;;;;;4911974;29;20210;-91
2023/06/19 06:30:33;;;;;;;10.80;8.82;;;21.20;47.70;;;;;;4913229;29;20210;-88
2023/06/19 06:33:01;;;;;;;10.85;8.30;;;21.40;47.50;;;;;;4922061;29;20614;-88
2023/06/19 06:35:29;;;;;;;10.25;8.48;;;21.50;46.10;;;;;;4913406;29;20209;-90
2023/06/19 06:37:56;;;;;;;9.32;8.13;;;21.60;44.80;;;;;;4896663;29;20199;-89
2023/06/19 06:40:23;;;;;;;9.40;8.43;;;21.60;44.60;;;;;;4912156;29;20195;-88
2023/06/19 06:42:51;;;;;;;11.35;8.02;;;21.60;45.50;;;;;;4896889;29;20202;-88
2023/06/19 06:45:18;;;;;;;11.93;8.90;;;21.60;45.30;;;;;;4897699;29;20214;-89
2023/06/19 06:47:45;;;;;;;10.05;8.13;;;21.70;45.30;;;;;;4899390;29;21017;-89
2023/06/19 06:50:13;;;;;;;11.38;7.95;;;21.90;44.40;;;;;;4896897;29;20246;-87
2023/06/19 06:52:40;;;;;;;12.15;8.23;;;22.10;42.50;;;;;;4896183;29;20207;-90
2023/06/19 06:55:07;;;;;;;10.77;8.00;;;22.50;41.40;;;;;;4894153;29;20209;-90
2023/06/19 06:57:35;;;;;;;9.27;7.82;;;23.00;36.40;;;;;;4914024;29;20213;-90
2023/06/19 07:00:03;;;;;;;11.13;7.53;;;23.40;35.00;;;;;;4896473;29;20211;-88
2023/06/19 07:02:30;;;;;;;8.98;7.25;;;23.80;31.60;;;;;;4905814;29;20276;-89
2023/06/19 07:04:57;;;;;;;10.70;7.50;;;24.00;29.80;;;;;;4914009;29;20238;-90
2023/06/19 07:07:25;;;;;;;9.05;7.32;;;24.10;29.50;;;;;;4891901;29;20203;-88
2023/06/19 07:09:52;;;;;;;8.27;7.47;;;24.10;30.10;;;;;;4912227;29;20210;-89
2023/06/19 07:12:19;;;;;;;12.05;7.50;;;24.20;30.30;;;;;;4911438;29;20212;-87
2023/06/19 07:14:45;;;;;;;11.35;7.18;;;24.20;29.00;;;;;;4912904;29;20210;-89
2023/06/19 07:17:12;;;;;;;13.52;7.25;;;24.30;28.30;;;;;;4896782;29;20204;-88
2023/06/19 07:19:42;;;;;;;10.98;6.80;;;24.30;28.30;;;;;;4913806;29;20214;-89
2023/06/19 07:22:09;;;;;;;8.32;7.18;;;24.30;28.70;;;;;;4917817;29;20205;-89
2023/06/19 07:24:38;;;;;;;7.45;6.75;;;24.30;28.80;;;;;;4912545;29;20241;-91
2023/06/19 07:27:06;;;;;;;7.38;6.10;;;24.60;27.10;;;;;;4888092;29;20258;-89
2023/06/19 07:29:33;;;;;;;8.27;6.32;;;25.10;24.00;;;;;;4907881;29;20576;-88
2023/06/19 07:32:02;;;;;;;6.95;6.15;;;25.30;22.50;;;;;;4897231;29;20198;-86
2023/06/19 07:34:29;;;;;;;6.90;6.32;;;25.60;22.50;;;;;;4885833;29;20203;-86
2023/06/19 07:36:55;;;;;;;8.02;6.32;;;25.90;22.00;;;;;;4910239;29;20205;-89
2023/06/19 07:39:22;;;;;;;6.78;6.07;;;26.10;20.00;;;;;;4910836;29;20202;-86
2023/06/19 07:41:51;;;;;;;7.30;6.28;;;26.10;19.80;;;;;;4903534;29;20199;-85
2023/06/19 07:44:20;;;;;;;8.20;6.22;;;26.00;20.30;;;;;;4887210;29;20285;-84
2023/06/19 07:46:47;;;;;;;6.72;6.10;;;26.00;19.50;;;;;;4901975;29;20686;-84
2023/06/19 07:49:14;;;;;;;9.38;6.22;;;26.20;19.50;;;;;;4904724;29;20210;-86
2023/06/19 07:51:41;;;;;;;7.28;6.00;;;26.30;19.90;;;;;;4910828;29;20206;-85
2023/06/19 07:54:08;;;;;;;5.82;5.28;;;26.40;19.20;;;;;;4904436;29;20202;-87
2023/06/19 07:56:35;;;;;;;5.18;4.68;;;26.50;18.50;;;;;;4911895;29;20202;-85
2023/06/19 07:59:03;;;;;;;6.18;5.00;;;26.70;16.80;;;;;;4894857;29;20205;-86
2023/06/19 08:01:30;;;;;;;9.43;5.30;;;26.90;17.70;;;;;;4893525;29;20195;-87
2023/06/19 08:03:57;;;;;;;7.85;5.55;;;27.00;17.40;;;;;;4906801;29;20237;-88
2023/06/19 08:06:24;;;;;;;7.57;5.45;;;27.00;17.20;;;;;;4909062;29;20206;-86
2023/06/19 08:08:51;;;;;;;7.97;5.20;;;26.90;17.60;;;;;;4904201;29;20206;-87
2023/06/19 08:11:18;;;;;;;7.97;5.40;;;26.90;17.20;;;;;;4907673;29;20266;-86
2023/06/19 08:13:45;;;;;;;10.10;5.15;;;27.10;17.10;;;;;;4876096;29;20198;-87
2023/06/19 08:16:17;;;;;;;5.82;5.28;;;27.20;16.80;;;;;;4879216;29;20217;-87
2023/06/19 08:18:45;;;;;;;5.50;4.72;;;27.60;15.40;;;;;;4914471;29;20600;-87
2023/06/19 08:21:12;;;;;;;7.78;4.70;;;28.40;15.80;;;;;;4911555;29;20210;-86
2023/06/19 08:23:40;;;;;;;5.43;4.80;;;29.60;13.10;;;;;;4893305;29;20700;-85
2023/06/19 08:26:07;;;;;;;22.15;20.10;;;29.70;12.20;;;;;;4914857;29;20667;-89
2023/06/19 08:28:35;;;;;;;6.20;5.60;;;29.50;12.40;;;;;;4912676;29;20210;-90
2023/06/19 08:31:02;;;;;;;13.63;12.38;;;29.10;13.90;;;;;;4895802;29;20209;-89
2023/06/19 08:33:32;;;;;;;5.97;5.38;;;29.00;14.00;;;;;;4914240;29;20249;-88
2023/06/19 08:35:59;;;;;;;10.32;5.20;;;28.60;15.00;;;;;;4919197;29;20557;-90
2023/06/19 08:38:26;;;;;;;5.70;4.85;;;28.40;15.80;;;;;;4891056;29;20225;-89
2023/06/19 08:40:52;;;;;;;5.35;4.95;;;28.20;14.90;;;;;;4911823;29;20203;-90
2023/06/19 08:43:19;;;;;;;7.20;5.63;;;27.90;15.60;;;;;;4909673;29;20210;-89
2023/06/19 08:45:56;;;;;;;6.57;4.85;;;28.00;15.60;;;;;;4912439;29;20201;-89
2023/06/19 08:48:23;;;;;;;5.72;4.95;;;28.30;14.90;;;;;;4894207;29;20265;-89
2023/06/19 08:50:52;;;;;;;5.50;5.00;;;28.50;15.90;;;;;;4910729;29;20201;-88
2023/06/19 08:53:19;;;;;;;5.60;5.10;;;29.70;13.20;;;;;;4917480;29;20237;-88
2023/06/19 08:55:46;;;;;;;7.90;5.35;;;31.50;10.40;;;;;;4900154;29;20206;-90
2023/06/19 08:58:13;;;;;;;5.75;4.97;;;32.20;9.00;;;;;;4917533;29;20202;-89
2023/06/19 09:00:40;;;;;;;8.25;5.28;;;32.30;9.20;;;;;;4901292;29;20202;-90
2023/06/19 09:03:07;;;;;;;7.80;5.50;;;31.70;10.20;;;;;;4922817;29;20198;-90
2023/06/19 09:05:34;;;;;;;9.65;8.82;;;31.50;10.00;;;;;;4914342;29;20231;-89
2023/06/19 09:08:03;;;;;;;6.55;5.70;;;31.00;11.20;;;;;;4915493;29;20664;-90
2023/06/19 09:10:30;;;;;;;7.25;4.65;;;31.00;11.70;;;;;;4914213;29;20201;-89
2023/06/19 09:12:59;;;;;;;7.03;5.22;;;31.30;9.60;;;;;;4878967;29;20214;-90
2023/06/19 09:15:29;;;;;;;5.32;4.93;;;32.20;8.80;;;;;;4916063;29;20207;-89
2023/06/19 09:18:06;;;;;;;6.35;4.90;;;32.10;8.00;;;;;;4921142;29;20225;-88
2023/06/19 09:20:34;;;;;;;4.63;4.22;;;31.60;9.00;;;;;;4917366;29;20683;-88
2023/06/19 09:23:03;;;;;;;3.10;2.90;;;31.10;7.50;;;;;;4914710;29;20577;-89
2023/06/19 09:25:44;;;;;;;3.13;2.92;;;30.50;9.00;;;;;;4912028;29;20229;-88
2023/06/19 09:28:18;;;;;;;3.53;3.22;;;30.10;10.00;;;;;;4892388;29;20221;-88
2023/06/19 09:30:58;;;;;;;5.32;3.35;;;30.20;9.40;;;;;;4908622;29;20217;-88
2023/06/19 09:36:08;;;;;;;7.03;3.67;;;30.20;9.50;;;;;;4915753;29;20285;-90
2023/06/19 09:38:39;;;;;;;4.72;3.80;;;30.10;10.60;;;;;;4915049;29;20209;-90
2023/06/19 09:41:08;;;;;;;5.40;3.67;;;30.30;10.30;;;;;;4914815;29;20746;-87
2023/06/19 09:43:37;;;;;;;4.43;3.65;;;30.60;9.90;;;;;;4915038;29;20210;-89
2023/06/19 09:46:05;;;;;;;4.85;3.88;;;31.60;9.50;;;;;;4897175;29;20638;-90
2023/06/19 09:48:34;;;;;;;4.93;4.53;;;32.60;7.10;;;;;;4911391;29;20202;-89
2023/06/19 09:51:08;;;;;;;4.70;4.40;;;33.40;6.50;;;;;;4900839;29;20202;-89
2023/06/19 09:53:37;;;;;;;5.20;4.70;;;34.00;5.80;;;;;;4912626;29;20210;-90
2023/06/19 09:56:05;;;;;;;4.55;4.15;;;34.40;5.70;;;;;;4916710;29;20198;-90
2023/06/19 09:58:33;;;;;;;5.90;4.55;;;34.40;4.10;;;;;;4899944;29;20209;-90
2023/06/19 10:01:01;;;;;;;5.75;5.22;;;34.40;5.30;;;;;;4916797;29;20554;-89
2023/06/19 10:06:57;;;;;;;6.88;5.15;;;33.70;6.10;;;;;;4906846;29;20690;-89
2023/06/19 10:12:22;;;;;;;6.28;5.88;;;34.30;5.10;;;;;;4912107;29;20672;-90
2023/06/19 10:14:50;;;;;;;7.03;6.45;;;35.10;4.60;;;;;;4899755;29;20239;-90
2023/06/19 10:17:19;;;;;;;7.68;6.13;;;35.00;4.60;;;;;;4895472;29;20206;-88
2023/06/19 10:19:57;;;;;;;8.45;6.45;;;34.80;4.70;;;;;;4911202;29;20228;-88
2023/06/19 10:22:31;;;;;;;6.57;6.07;;;35.00;4.60;;;;;;4918973;29;20198;-89
2023/06/19 10:27:40;;;;;;;7.70;7.00;;;35.60;4.00;;;;;;4911312;29;20717;-89
2023/06/19 10:30:18;;;;;;;7.47;6.70;;;34.90;4.50;;;;;;4915221;29;20209;-90
2023/06/19 10:32:45;;;;;;;7.20;6.63;;;34.20;6.40;;;;;;4905992;29;20664;-89
2023/06/19 10:35:14;;;;;;;7.00;6.47;;;34.40;4.80;;;;;;4917218;29;20655;-88
2023/06/19 10:37:42;;;;;;;7.10;6.50;;;34.70;5.00;;;;;;4916931;29;20290;-90
2023/06/19 10:40:12;;;;;;;12.80;6.88;;;34.40;5.10;;;;;;4914703;29;20210;-89
2023/06/19 10:42:40;;;;;;;7.47;6.45;;;33.70;7.60;;;;;;4910810;29;20206;-89
2023/06/19 10:45:28;;;;;;;6.75;6.22;;;33.50;7.00;;;;;;4914617;29;20226;-90
2023/06/19 10:47:56;;;;;;;6.88;6.32;;;33.20;7.80;;;;;;4915920;29;20249;-89
2023/06/19 10:50:23;;;;;;;8.23;6.32;;;33.30;9.60;;;;;;4912848;29;20303;-88
2023/06/19 10:52:54;;;;;;;7.65;6.95;;;33.40;8.20;;;;;;4907953;29;20297;-89
2023/06/19 10:55:26;;;;;;;7.40;6.07;;;33.90;9.70;;;;;;4910903;29;20213;-88
2023/06/19 10:57:53;;;;;;;6.70;6.10;;;33.60;6.80;;;;;;4915858;29;20209;-88
2023/06/19 11:00:27;;;;;;;6.18;5.60;;;33.70;7.80;;;;;;4911579;29;20673;-90
2023/06/19 11:02:56;;;;;;;6.60;6.10;;;33.60;6.30;;;;;;4908100;29;20206;-89
2023/06/19 11:05:23;;;;;;;7.03;6.30;;;33.30;7.90;;;;;;4916572;29;20593;-90
2023/06/19 11:07:54;;;;;;;8.02;5.90;;;33.00;8.50;;;;;;4913388;29;20206;-88
2023/06/19 11:10:24;;;;;;;8.02;6.38;;;32.70;7.80;;;;;;4913299;29;20198;-88
2023/06/19 11:12:53;;;;;;;7.03;5.70;;;32.30;9.70;;;;;;4909641;29;20202;-88
2023/06/19 11:15:21;;;;;;;6.50;5.90;;;32.20;8.70;;;;;;4912985;29;20205;-88
2023/06/19 11:17:48;;;;;;;8.13;5.65;;;32.10;8.70;;;;;;4913411;29;20225;-88
2023/06/19 11:20:15;;;;;;;6.03;5.43;;;31.90;8.60;;;;;;4907203;29;20210;-88
2023/06/19 11:22:42;;;;;;;6.95;5.53;;;32.10;8.80;;;;;;4914387;29;20734;-89
2023/06/19 11:25:11;;;;;;;6.20;5.60;;;31.80;9.30;;;;;;4908819;29;20234;-88
2023/06/19 11:27:42;;;;;;;5.93;5.32;;;31.60;9.30;;;;;;4893233;29;20202;-88
2023/06/19 11:30:09;;;;;;;6.28;5.63;;;31.10;10.00;;;;;;4912296;29;20638;-89
2023/06/19 11:32:40;;;;;;;7.70;5.60;;;31.20;9.80;;;;;;4913053;29;20210;-90
2023/06/19 11:35:10;;;;;;;6.15;5.65;;;31.20;11.60;;;;;;4911080;29;20663;-88
2023/06/19 11:37:38;;;;;;;5.55;5.07;;;31.20;11.90;;;;;;4898703;29;20678;-89
2023/06/19 11:40:12;;;;;;;5.10;4.60;;;31.50;9.60;;;;;;4902345;29;20345;-88
2023/06/19 11:42:47;;;;;;;4.97;4.47;;;31.90;7.90;;;;;;4907718;29;20209;-91
2023/06/19 11:45:15;;;;;;;5.10;4.60;;;31.60;11.80;;;;;;4915171;29;20229;-88
2023/06/19 11:47:43;;;;;;;5.15;4.60;;;31.60;9.20;;;;;;4912428;29;20206;-88
2023/06/19 11:50:11;;;;;;;8.02;4.15;;;31.30;8.90;;;;;;4913673;29;20198;-88
2023/06/19 11:52:38;;;;;;;5.20;4.30;;;30.60;10.50;;;;;;4906263;29;20218;-89
2023/06/19 11:55:06;;;;;;;7.35;3.78;;;29.90;10.90;;;;;;4912081;29;20202;-89
2023/06/19 11:57:33;;;;;;;4.78;4.05;;;29.40;12.00;;;;;;4911431;29;20661;-88
2023/06/19 12:00:06;;;;;;;5.45;4.20;;;29.00;12.50;;;;;;4893186;29;20238;-88
2023/06/19 12:02:33;;;;;;;6.90;4.03;;;28.60;13.20;;;;;;4898046;29;20294;-85
2023/06/19 12:05:00;;;;;;;6.38;4.47;;;28.30;13.80;;;;;;4907476;29;20241;-87
2023/06/19 12:07:28;;;;;;;4.82;4.38;;;28.00;15.70;;;;;;4912827;29;20303;-85
2023/06/19 12:09:55;;;;;;;8.00;4.72;;;28.20;15.70;;;;;;4905986;29;20209;-87
2023/06/19 12:12:22;;;;;;;5.82;4.00;;;28.60;15.00;;;;;;4907841;29;20207;-86
2023/06/19 12:14:51;;;;;;;7.25;4.40;;;29.10;15.70;;;;;;4908749;29;20206;-87
2023/06/19 12:17:20;;;;;;;4.78;4.28;;;29.50;12.70;;;;;;4913974;29;20214;-85
2023/06/19 12:19:48;;;;;;;5.00;4.40;;;29.70;13.40;;;;;;4888945;29;20219;-86
2023/06/19 12:22:15;;;;;;;4.55;4.00;;;29.50;13.20;;;;;;4895457;29;20234;-86
2023/06/19 12:24:42;;;;;;;5.18;4.10;;;29.50;13.30;;;;;;4907005;29;20694;-86
2023/06/19 12:27:09;;;;;;;5.93;4.20;;;29.70;12.40;;;;;;4908195;29;20202;-86
2023/06/19 12:29:35;;;;;;;6.68;3.88;;;29.70;12.00;;;;;;4893442;29;20222;-86
2023/06/19 12:32:03;;;;;;;4.68;4.13;;;29.90;12.50;;;;;;4896362;29;20225;-86
2023/06/19 12:34:32;;;;;;;4.93;3.92;;;30.10;11.30;;;;;;4914276;29;20208;-85
2023/06/19 12:36:59;;;;;;;7.68;4.20;;;30.20;10.90;;;;;;4911657;29;20206;-88
2023/06/19 12:39:26;;;;;;;4.05;3.75;;;30.40;10.90;;;;;;4915516;29;20217;-87
2023/06/19 12:41:53;;;;;;;4.82;4.15;;;30.40;10.00;;;;;;4892812;29;20679;-86
2023/06/19 12:44:22;;;;;;;5.15;3.80;;;30.30;10.00;;;;;;4916777;29;20202;-84
2023/06/19 12:46:49;;;;;;;6.95;4.20;;;30.00;10.80;;;;;;4914044;29;20237;-86
2023/06/19 12:49:16;;;;;;;4.00;3.67;;;29.80;11.90;;;;;;4917201;29;20301;-86
2023/06/19 12:51:45;;;;;;;4.72;4.32;;;29.80;11.20;;;;;;4897245;29;20435;-89
2023/06/19 12:54:11;;;;;;;4.88;3.80;;;29.80;10.60;;;;;;4902282;29;20205;-86
2023/06/19 12:56:38;;;;;;;4.55;3.70;;;29.70;10.70;;;;;;4901973;29;20203;-86
2023/06/19 12:59:05;;;;;;;4.95;4.10;;;29.70;11.20;;;;;;4914372;29;20293;-87
2023/06/19 13:01:32;;;;;;;4.35;4.05;;;29.80;11.80;;;;;;4894862;29;20210;-86
2023/06/19 13:03:59;;;;;;;4.13;3.78;;;29.90;11.80;;;;;;4915428;29;20204;-87